Terminal Aerodrome Forecast
Issued by NWS

Home | Current Version | Previous Version | Text Only | Print | Product List | Glossary On
Versions: 1 2 3 4 5 6 7 8 9 10 11 12 13 14 15 16 17 18 19 20 21 22 23 24 25
000
FTPA31 PHFO 311700
TAFOGG
TAF
PHOG 311727Z 3118/0118 04012KT P6SM FEW030 SCT050
     FM312000 04020G30KT P6SM SCT030 SCT050
     FM010600 05013KT P6SM FEW030 SCT050
      AMD LTD TO VIS AND WIND 0109/0116=

USA.gov is the U.S. government's official web portal to all federal, state and local government web resources and services.